Time;durP1;ratioP1;P1;durP2;ratioP2;P2;SDS_P1;SDS_P2;PMS_P1;PMS_P2;Temp;Humidity;BMP_temperature;BMP_pressure;BME280_temperature;BME280_humidity;BME280_pressure;Samples;Min_cycle;Max_cycle;Signal;HPM_P1;HPM_P2
2022/11/25 00:00:10;;;;;;;;;;;;;;;9.53;65.23;99211.31;303749;32;896;-75
2022/11/25 00:00:20;;;;;;;;;;;;;;;9.53;65.21;99206.09;302401;32;5410;-75
2022/11/25 00:00:30;;;;;;;;;;;;;;;9.54;65.25;99207.78;303668;32;5897;-75
2022/11/25 00:00:41;;;;;;;;;;;;;;;9.54;65.40;99202.56;305604;32;865;-75
2022/11/25 00:00:51;;;;;;;;;;;;;;;9.54;65.32;99207.78;305679;32;4678;-75
2022/11/25 00:01:08;;;;;;;;;;;;;;;9.54;64.98;99207.78;303378;32;4321;-76
2022/11/25 00:01:19;;;;;;;;;;;;;;;9.52;65.19;99199.19;302712;32;5019;-76
2022/11/25 00:01:31;;;;;;;;;;;;;;;9.53;65.08;99206.09;300820;32;6446;-76
2022/11/25 00:01:41;;;;;;;;;;;;;;;9.52;65.24;99203.56;301540;32;905;-76
2022/11/25 00:01:51;;;;;;;;;;;;;;;9.51;65.06;99202.72;301030;32;7835;-75
2022/11/25 00:02:02;;;;;;;;;;;;;;;9.53;65.30;99200.06;300062;32;8726;-75
2022/11/25 00:02:12;;;;;;;;;;;;;;;9.53;65.21;99206.09;296818;33;8079;-75
2022/11/25 00:02:22;;;;;;;;;;;;;;;9.53;64.96;99198.25;295998;33;896;-75
2022/11/25 00:02:32;;;;;;;;;;;;;;;9.53;65.21;99200.88;296021;33;6837;-75
2022/11/25 00:02:43;;;;;;;;;;;;;;;9.54;65.21;99201.72;295930;33;7478;-75
2022/11/25 00:02:53;;;;;;;;;;;;;;;9.53;65.19;99200.88;296403;33;842;-75
2022/11/25 00:03:04;;;;;;;;;;;;;;;9.52;65.26;99199.19;292750;33;5850;-75
2022/11/25 00:04:43;;;;;;;;;;;;;;;9.49;65.17;99199.34;2504526;27;19937;-75
2022/11/25 00:04:53;;;;;;;;;;;;;;;9.49;64.95;99201.94;356283;27;878;-75
2022/11/25 00:05:03;;;;;;;;;;;;;;;9.50;65.00;99200.19;354172;27;918;-75
2022/11/25 00:05:14;;;;;;;;;;;;;;;9.51;65.26;99207.94;351821;28;1951;-75
2022/11/25 00:05:24;;;;;;;;;;;;;;;9.50;65.23;99211.47;350615;28;919;-75
2022/11/25 00:05:34;;;;;;;;;;;;;;;9.50;65.08;99206.25;349640;28;1360;-75
2022/11/25 00:05:45;;;;;;;;;;;;;;;9.51;65.21;99210.56;347675;28;1097;-75
2022/11/25 00:05:55;;;;;;;;;;;;;;;9.51;65.03;99202.72;346498;28;848;-75
2022/11/25 00:06:17;;;;;;;;;;;;;;;9.50;65.37;99198.41;347900;28;797;-75
2022/11/25 00:06:31;;;;;;;;;;;;;;;9.50;65.12;99201.03;346504;28;884;-75
2022/11/25 00:06:41;;;;;;;;;;;;;;;9.50;65.42;99201.03;346258;28;1243;-75
2022/11/25 00:06:51;;;;;;;;;;;;;;;9.51;65.58;99196.66;347656;28;1550;-75
2022/11/25 00:07:02;;;;;;;;;;;;;;;9.51;65.54;99212.31;349260;28;1380;-75
2022/11/25 00:07:12;;;;;;;;;;;;;;;9.50;65.30;99211.47;347827;28;1187;-75
2022/11/25 00:07:22;;;;;;;;;;;;;;;9.49;65.21;99204.56;347844;28;1421;-75
2022/11/25 00:07:34;;;;;;;;;;;;;;;9.50;65.30;99205.41;346491;28;863;-75
2022/11/25 00:07:44;;;;;;;;;;;;;;;9.50;65.51;99195.81;345265;28;849;-75
2022/11/25 00:07:54;;;;;;;;;;;;;;;9.50;65.39;99201.03;345200;28;853;-75
2022/11/25 00:08:04;;;;;;;;;;;;;;;9.50;65.38;99194.97;345145;28;870;-76
2022/11/25 00:08:15;;;;;;;;;;;;;;;9.49;65.29;99204.56;347700;28;1256;-76
2022/11/25 00:08:25;;;;;;;;;;;;;;;9.48;65.20;99202.84;345942;28;1512;-75
2022/11/25 00:08:35;;;;;;;;;;;;;;;9.49;65.22;99204.56;344877;28;1095;-75
2022/11/25 00:08:46;;;;;;;;;;;;;;;9.49;65.14;99208.94;345097;28;854;-75
2022/11/25 00:08:57;;;;;;;;;;;;;;;9.47;65.45;99198.53;347070;28;1286;-75
2022/11/25 00:09:11;;;;;;;;;;;;;;;9.47;65.29;99201.16;346427;28;997;-75
2022/11/25 00:09:24;;;;;;;;;;;;;;;9.48;65.18;99208.09;346404;28;1260;-75
2022/11/25 00:09:34;;;;;;;;;;;;;;;9.50;65.39;99201.03;346359;28;852;-75
2022/11/25 00:09:44;;;;;;;;;;;;;;;9.49;65.31;99209.78;345207;28;792;-75
2022/11/25 00:09:54;;;;;;;;;;;;;;;9.50;65.51;99201.03;341399;28;1202;-75
2022/11/25 00:10:05;;;;;;;;;;;;;;;9.50;65.46;99201.03;342433;28;931;-75
2022/11/25 00:10:15;;;;;;;;;;;;;;;9.50;65.51;99206.25;343451;28;1453;-75
2022/11/25 00:10:26;;;;;;;;;;;;;;;9.49;65.19;99203.72;347008;28;1320;-76
2022/11/25 00:10:37;;;;;;;;;;;;;;;9.48;65.27;99208.09;345706;28;1318;-75
2022/11/25 00:10:47;;;;;;;;;;;;;;;9.49;65.27;99198.47;344983;28;1023;-75
2022/11/25 00:10:59;;;;;;;;;;;;;;;9.49;65.63;99204.56;343786;28;1333;-75
2022/11/25 00:11:09;;;;;;;;;;;;;;;9.50;65.37;99200.19;344894;28;1240;-75
2022/11/25 00:11:20;;;;;;;;;;;;;;;9.50;65.57;99206.25;342303;28;1231;-75
2022/11/25 00:11:30;;;;;;;;;;;;;;;9.50;65.49;99206.25;340841;29;1188;-75
2022/11/25 00:11:40;;;;;;;;;;;;;;;9.49;65.25;99194.09;342217;28;873;-75
2022/11/25 00:11:51;;;;;;;;;;;;;;;9.48;65.30;99199.41;343710;28;1209;-75
2022/11/25 00:12:01;;;;;;;;;;;;;;;9.48;65.62;99208.09;342434;28;1389;-75
2022/11/25 00:12:11;;;;;;;;;;;;;;;9.47;65.62;99201.16;342293;28;1211;-75
2022/11/25 00:12:21;;;;;;;;;;;;;;;9.47;65.45;99203.78;341265;28;3908;-74
2022/11/25 00:12:32;;;;;;;;;;;;;;;9.48;65.66;99207.22;340060;28;4814;-76
2022/11/25 00:12:42;;;;;;;;;;;;;;;9.48;65.93;99209.84;340752;29;3468;-76
2022/11/25 00:12:52;;;;;;;;;;;;;;;9.47;65.61;99211.59;343388;28;1665;-75
2022/11/25 00:13:02;;;;;;;;;;;;;;;9.49;65.58;99198.47;346257;28;3336;-75
2022/11/25 00:13:13;;;;;;;;;;;;;;;9.49;65.81;99204.56;346264;28;797;-76
2022/11/25 00:13:23;;;;;;;;;;;;;;;9.50;65.77;99208.03;341084;28;1539;-75
2022/11/25 00:13:33;;;;;;;;;;;;;;;9.50;65.76;99208.88;338884;29;1992;-75
2022/11/25 00:13:43;;;;;;;;;;;;;;;9.50;65.69;99201.03;339649;29;1290;-75
2022/11/25 00:13:54;;;;;;;;;;;;;;;9.49;65.34;99207.16;339024;29;1222;-75
2022/11/25 00:14:04;;;;;;;;;;;;;;;9.49;65.66;99204.56;337087;29;922;-75
2022/11/25 00:14:15;;;;;;;;;;;;;;;9.50;65.19;99206.25;340948;28;1264;-75
2022/11/25 00:14:25;;;;;;;;;;;;;;;9.50;65.44;99201.03;340987;28;1097;-75
2022/11/25 00:14:35;;;;;;;;;;;;;;;9.51;65.73;99212.31;339517;29;1389;-75
2022/11/25 00:14:45;;;;;;;;;;;;;;;9.51;65.42;99207.09;339833;29;837;-75
2022/11/25 00:14:56;;;;;;;;;;;;;;;9.51;65.24;99202.72;338031;29;1723;-75
2022/11/25 00:15:06;;;;;;;;;;;;;;;9.49;65.19;99204.56;339188;28;1777;-75
2022/11/25 00:15:16;;;;;;;;;;;;;;;9.49;65.30;99198.47;335846;29;1294;-75
2022/11/25 00:15:26;;;;;;;;;;;;;;;9.49;65.39;99209.78;336844;29;1997;-76
2022/11/25 00:15:37;;;;;;;;;;;;;;;9.48;65.52;99207.22;337631;29;2186;-75
2022/11/25 00:15:47;;;;;;;;;;;;;;;9.48;65.21;99208.09;338088;29;1727;-76
2022/11/25 00:16:04;;;;;;;;;;;;;;;9.47;65.20;99203.78;335842;29;1334;-76
2022/11/25 00:16:15;;;;;;;;;;;;;;;9.47;65.19;99201.16;335757;29;1267;-76
2022/11/25 00:16:25;;;;;;;;;;;;;;;9.48;65.54;99202.00;334654;29;829;-76
2022/11/25 00:16:36;;;;;;;;;;;;;;;9.48;65.44;99213.31;333038;29;1776;-76
2022/11/25 00:16:46;;;;;;;;;;;;;;;9.47;65.25;99209.00;333447;29;901;-77
2022/11/25 00:16:56;;;;;;;;;;;;;;;9.47;65.29;99203.78;334147;29;1994;-77
2022/11/25 00:17:06;;;;;;;;;;;;;;;9.47;65.42;99197.69;335820;29;2477;-76
2022/11/25 00:17:16;;;;;;;;;;;;;;;9.47;65.47;99211.59;335781;29;988;-76
2022/11/25 00:17:27;;;;;;;;;;;;;;;9.47;65.32;99203.78;336791;29;2490;-76
2022/11/25 00:17:37;;;;;;;;;;;;;;;9.47;65.43;99201.16;337419;29;2805;-75
2022/11/25 00:17:47;;;;;;;;;;;;;;;9.47;65.39;99206.38;337023;29;2718;-76
2022/11/25 00:17:57;;;;;;;;;;;;;;;9.48;65.63;99204.63;335950;29;926;-76
2022/11/25 00:18:07;;;;;;;;;;;;;;;9.49;65.48;99214.16;335209;29;1762;-76
2022/11/25 00:18:18;;;;;;;;;;;;;;;9.48;65.33;99207.22;336922;29;1098;-76
2022/11/25 00:18:28;;;;;;;;;;;;;;;9.48;65.53;99202.84;335654;29;1669;-76
2022/11/25 00:18:38;;;;;;;;;;;;;;;9.47;65.16;99195.94;334865;29;1883;-76
2022/11/25 00:18:49;;;;;;;;;;;;;;;9.47;65.38;99200.31;332874;29;2382;-76
2022/11/25 00:19:00;;;;;;;;;;;;;;;9.45;65.20;99203.00;328746;30;793;-75
2022/11/25 00:19:10;;;;;;;;;;;;;;;9.45;65.46;99183.84;332949;29;2822;-75
2022/11/25 00:19:20;;;;;;;;;;;;;;;9.45;65.05;99196.91;330841;29;3187;-75
2022/11/25 00:19:31;;;;;;;;;;;;;;;9.44;65.45;99200.44;329484;30;1018;-75
2022/11/25 00:19:41;;;;;;;;;;;;;;;9.43;65.35;99199.59;323288;30;3073;-75
2022/11/25 00:19:51;;;;;;;;;;;;;;;9.44;65.21;99206.50;323707;30;3483;-74
2022/11/25 00:20:04;;;;;;;;;;;;;;;9.45;65.26;99195.16;323512;30;1493;-77
2022/11/25 00:20:15;;;;;;;;;;;;;;;9.44;65.17;99196.06;327194;30;860;-75
2022/11/25 00:20:25;;;;;;;;;;;;;;;9.46;65.42;99203.84;324562;30;2282;-75
2022/11/25 00:20:36;;;;;;;;;;;;;;;9.46;65.08;99204.69;322798;30;1664;-75
2022/11/25 00:20:46;;;;;;;;;;;;;;;9.47;65.29;99209.00;320164;30;1159;-75
2022/11/25 00:20:56;;;;;;;;;;;;;;;9.48;64.94;99202.00;317024;30;2486;-75
2022/11/25 00:21:07;;;;;;;;;;;;;;;9.48;65.22;99207.22;314566;31;3622;-75
2022/11/25 00:21:18;;;;;;;;;;;;;;;9.48;65.22;99199.41;313607;31;4254;-75
2022/11/25 00:21:30;;;;;;;;;;;;;;;9.49;65.31;99204.56;312123;31;1284;-75
2022/11/25 00:21:40;;;;;;;;;;;;;;;9.48;65.21;99200.25;310167;31;4274;-75
2022/11/25 00:21:50;;;;;;;;;;;;;;;9.47;64.95;99206.38;310456;31;4615;-75
2022/11/25 00:22:01;;;;;;;;;;;;;;;9.47;64.84;99193.31;309931;31;550;-76
2022/11/25 00:22:11;;;;;;;;;;;;;;;9.47;65.10;99197.69;309922;31;4630;-75
2022/11/25 00:22:21;;;;;;;;;;;;;;;9.48;65.19;99197.63;312630;31;4539;-75
2022/11/25 00:22:31;;;;;;;;;;;;;;;9.49;65.15;99204.56;312056;31;1211;-75
2022/11/25 00:22:42;;;;;;;;;;;;;;;9.49;65.09;99194.09;309797;31;3268;-75
2022/11/25 00:22:52;;;;;;;;;;;;;;;9.49;65.21;99194.09;311739;31;2826;-76
2022/11/25 00:23:02;;;;;;;;;;;;;;;9.49;65.24;99193.25;308772;31;3529;-75
2022/11/25 00:23:13;;;;;;;;;;;;;;;9.49;65.09;99199.34;304517;32;849;-76
2022/11/25 00:23:24;;;;;;;;;;;;;;;9.48;65.23;99195.03;302570;32;5353;-75
2022/11/25 00:23:34;;;;;;;;;;;;;;;9.47;64.81;99195.94;300949;32;5481;-76
2022/11/25 00:23:48;;;;;;;;;;;;;;;9.47;64.99;99201.16;302298;32;1264;-77
2022/11/25 00:23:59;;;;;;;;;;;;;;;9.46;64.93;99194.25;301768;32;825;-76
2022/11/25 00:24:09;;;;;;;;;;;;;;;9.46;64.94;99201.22;300963;32;6364;-76
2022/11/25 00:24:20;;;;;;;;;;;;;;;9.45;65.11;99200.38;300393;32;6596;-76
2022/11/25 00:24:30;;;;;;;;;;;;;;;9.46;64.88;99193.38;301887;32;904;-75
2022/11/25 00:24:40;;;;;;;;;;;;;;;9.46;64.98;99193.38;302658;32;6130;-75
2022/11/25 00:24:50;;;;;;;;;;;;;;;9.45;65.11;99195.16;302909;32;4111;-76
2022/11/25 00:25:01;;;;;;;;;;;;;;;9.44;65.28;99206.50;301916;32;1175;-76
2022/11/25 00:25:11;;;;;;;;;;;;;;;9.43;64.94;99196.97;299795;32;5222;-75
2022/11/25 00:25:21;;;;;;;;;;;;;;;9.43;64.95;99202.19;297988;33;5469;-74
2022/11/25 00:25:31;;;;;;;;;;;;;;;9.45;65.04;99202.13;297093;33;944;-75
2022/11/25 00:25:43;;;;;;;;;;;;;;;9.44;65.23;99196.06;297832;33;6538;-75
2022/11/25 00:25:53;;;;;;;;;;;;;;;9.44;64.72;99206.50;299295;32;8046;-76
2022/11/25 00:26:13;;;;;;;;;;;;;;;9.45;65.02;99202.13;298105;32;8100;-75
2022/11/25 00:26:23;;;;;;;;;;;;;;;9.44;65.03;99190.84;296810;33;8321;-75
2022/11/25 00:26:34;;;;;;;;;;;;;;;9.46;64.84;99203.84;294726;33;9134;-75
2022/11/25 00:26:44;;;;;;;;;;;;;;;9.45;64.80;99203.00;295179;33;2239;-75
2022/11/25 00:28:56;;;;;;;;;;;;;;;9.44;64.99;99197.84;2493359;27;19927;-75
2022/11/25 00:29:07;;;;;;;;;;;;;;;9.44;65.43;99205.66;354906;27;918;-75
2022/11/25 00:29:17;;;;;;;;;;;;;;;9.42;64.80;99200.50;351912;28;1406;-76
2022/11/25 00:29:27;;;;;;;;;;;;;;;9.41;64.67;99190.13;350242;28;1329;-75
2022/11/25 00:29:37;;;;;;;;;;;;;;;9.41;64.68;99201.41;347887;28;875;-75
2022/11/25 00:29:47;;;;;;;;;;;;;;;9.42;64.63;99197.03;347984;28;789;-76
2022/11/25 00:29:58;;;;;;;;;;;;;;;9.42;64.64;99203.13;350209;28;1378;-75
2022/11/25 00:30:08;;;;;;;;;;;;;;;9.42;64.59;99197.91;349296;28;915;-74
2022/11/25 00:30:18;;;;;;;;;;;;;;;9.42;64.92;99197.91;349045;28;1274;-74
2022/11/25 00:30:29;;;;;;;;;;;;;;;9.43;64.67;99199.59;348987;28;1298;-75
2022/11/25 00:30:39;;;;;;;;;;;;;;;9.44;64.90;99205.66;349333;28;800;-75
2022/11/25 00:30:49;;;;;;;;;;;;;;;9.44;64.70;99196.06;346984;28;4028;-76
2022/11/25 00:31:06;;;;;;;;;;;;;;;9.44;65.20;99201.28;348012;28;6043;-76
2022/11/25 00:31:23;;;;;;;;;;;;;;;9.45;64.75;99203.00;350285;28;1704;-75
2022/11/25 00:31:33;;;;;;;;;;;;;;;9.44;65.02;99195.22;350496;28;899;-75
2022/11/25 00:31:43;;;;;;;;;;;;;;;9.45;65.12;99192.53;350577;28;1325;-75
2022/11/25 00:31:54;;;;;;;;;;;;;;;9.44;64.57;99200.44;349263;28;938;-75
2022/11/25 00:32:04;;;;;;;;;;;;;;;9.43;64.86;99194.38;350660;28;907;-75
2022/11/25 00:32:14;;;;;;;;;;;;;;;9.43;64.93;99198.75;349106;28;1202;-75
2022/11/25 00:32:24;;;;;;;;;;;;;;;9.43;64.76;99199.59;349219;28;1208;-75
2022/11/25 00:32:34;;;;;;;;;;;;;;;9.43;65.03;99198.75;350261;28;1174;-77
2022/11/25 00:32:45;;;;;;;;;;;;;;;9.43;64.63;99202.19;348970;28;1378;-76
2022/11/25 00:32:55;;;;;;;;;;;;;;;9.44;65.00;99201.28;347862;28;1368;-75
2022/11/25 00:33:05;;;;;;;;;;;;;;;9.44;64.85;99203.06;348602;28;1396;-75
2022/11/25 00:33:17;;;;;;;;;;;;;;;9.44;64.91;99200.44;347751;28;1306;-76
2022/11/25 00:33:27;;;;;;;;;;;;;;;9.43;64.87;99199.59;347100;28;1665;-75
2022/11/25 00:33:38;;;;;;;;;;;;;;;9.42;64.83;99200.50;348718;28;1275;-75
2022/11/25 00:33:48;;;;;;;;;;;;;;;9.43;64.93;99196.13;346353;28;1286;-75
2022/11/25 00:33:58;;;;;;;;;;;;;;;9.44;65.16;99205.66;347900;28;951;-76
2022/11/25 00:34:10;;;;;;;;;;;;;;;9.43;64.81;99199.59;347680;28;1142;-75
2022/11/25 00:34:20;;;;;;;;;;;;;;;9.44;64.75;99206.50;345584;28;1043;-75
2022/11/25 00:34:30;;;;;;;;;;;;;;;9.44;65.14;99210.88;344366;28;1364;-75
2022/11/25 00:34:41;;;;;;;;;;;;;;;9.45;64.87;99202.13;343875;28;1202;-75
2022/11/25 00:34:51;;;;;;;;;;;;;;;9.45;64.98;99202.13;342510;28;1169;-75
2022/11/25 00:35:01;;;;;;;;;;;;;;;9.46;65.05;99202.06;343719;28;1106;-75
2022/11/25 00:35:11;;;;;;;;;;;;;;;9.45;64.92;99203.00;345042;28;1208;-75
2022/11/25 00:35:21;;;;;;;;;;;;;;;9.45;64.76;99197.75;347928;28;1290;-75
2022/11/25 00:35:33;;;;;;;;;;;;;;;9.46;65.09;99203.84;348158;28;1197;-75
2022/11/25 00:35:43;;;;;;;;;;;;;;;9.44;64.86;99201.28;347595;28;1073;-76
2022/11/25 00:35:53;;;;;;;;;;;;;;;9.45;64.85;99208.22;346300;28;1409;-76
2022/11/25 00:36:04;;;;;;;;;;;;;;;9.44;64.92;99211.72;346529;28;801;-75
2022/11/25 00:36:24;;;;;;;;;;;;;;;9.44;65.01;99206.50;346345;28;1357;-75
2022/11/25 00:36:35;;;;;;;;;;;;;;;9.43;65.00;99204.81;345584;28;898;-76
2022/11/25 00:36:45;;;;;;;;;;;;;;;9.43;65.16;99210.03;345211;28;1248;-76
2022/11/25 00:36:55;;;;;;;;;;;;;;;9.43;65.10;99204.81;344714;28;4276;-75
2022/11/25 00:37:06;;;;;;;;;;;;;;;9.41;65.17;99206.66;339647;28;5709;-75
2022/11/25 00:37:16;;;;;;;;;;;;;;;9.40;65.23;99201.47;339660;28;3619;-76
2022/11/25 00:37:26;;;;;;;;;;;;;;;9.40;65.11;99207.56;342366;28;2029;-76
2022/11/25 00:37:36;;;;;;;;;;;;;;;9.40;64.81;99207.56;341723;28;3657;-75
2022/11/25 00:37:46;;;;;;;;;;;;;;;9.41;64.83;99203.19;341697;28;1376;-75
2022/11/25 00:37:57;;;;;;;;;;;;;;;9.42;64.84;99208.34;340993;29;1467;-76
2022/11/25 00:38:07;;;;;;;;;;;;;;;9.42;64.95;99208.34;339544;29;1219;-76
2022/11/25 00:38:17;;;;;;;;;;;;;;;9.41;64.77;99204.03;338461;29;991;-76
2022/11/25 00:38:27;;;;;;;;;;;;;;;9.43;64.96;99203.97;337015;29;1526;-76
2022/11/25 00:38:38;;;;;;;;;;;;;;;9.42;64.96;99213.56;334556;29;1349;-76
2022/11/25 00:38:58;;;;;;;;;;;;;;;9.44;64.99;99210.88;338582;29;1391;-75
2022/11/25 00:39:14;;;;;;;;;;;;;;;9.44;65.13;99209.13;335415;29;1587;-75
2022/11/25 00:39:26;;;;;;;;;;;;;;;9.44;65.22;99208.28;334523;29;1293;-75
2022/11/25 00:39:36;;;;;;;;;;;;;;;9.43;64.89;99207.44;334851;29;1816;-75
2022/11/25 00:39:46;;;;;;;;;;;;;;;9.43;65.26;99214.41;334603;29;2205;-75
2022/11/25 00:39:56;;;;;;;;;;;;;;;9.43;65.43;99209.19;332165;29;854;-77
2022/11/25 00:40:07;;;;;;;;;;;;;;;9.44;64.99;99208.28;330427;29;1745;-75
2022/11/25 00:40:17;;;;;;;;;;;;;;;9.44;65.24;99210.88;333553;29;914;-74
2022/11/25 00:40:27;;;;;;;;;;;;;;;9.44;65.14;99211.72;333314;29;1202;-75
2022/11/25 00:40:37;;;;;;;;;;;;;;;9.44;65.25;99209.13;333079;29;1199;-75
2022/11/25 00:44:34;;;;;;;;;;;;;;;9.43;65.35;99202.19;333207;29;1870;-75
2022/11/25 00:44:43;;;;;;;;;;;;;;;9.43;65.31;99211.81;304559;32;782;-75
2022/11/25 00:44:53;;;;;;;;;;;;;;;9.41;65.33;99211.88;304038;32;2346;-74
2022/11/25 00:45:04;;;;;;;;;;;;;;;9.39;65.35;99205.84;302304;32;2739;-74
2022/11/25 00:45:14;;;;;;;;;;;;;;;9.39;65.62;99205.84;302075;32;3579;-74
2022/11/25 00:45:24;;;;;;;;;;;;;;;9.39;65.88;99208.47;301414;32;817;-74
2022/11/25 00:45:34;;;;;;;;;;;;;;;9.39;65.57;99207.63;296170;33;4433;-74
2022/11/25 00:45:45;;;;;;;;;;;;;;;9.38;65.81;99212.00;293862;33;4621;-74
2022/11/25 00:45:55;;;;;;;;;;;;;;;9.39;65.62;99213.69;296234;33;1635;-74
2022/11/25 00:46:05;;;;;;;;;;;;;;;9.39;65.47;99213.69;296362;33;4546;-74
2022/11/25 00:46:15;;;;;;;;;;;;;;;9.39;65.87;99205.84;294095;33;5598;-74
2022/11/25 00:46:26;;;;;;;;;;;;;;;9.39;65.54;99216.31;296324;33;3500;-76
2022/11/25 00:46:36;;;;;;;;;;;;;;;9.40;65.67;99210.16;294269;33;4753;-75
2022/11/25 00:46:46;;;;;;;;;;;;;;;9.39;65.81;99208.47;291176;33;3455;-75
2022/11/25 00:46:56;;;;;;;;;;;;;;;9.39;65.67;99208.47;291154;34;3961;-75
2022/11/25 00:47:10;;;;;;;;;;;;;;;9.38;65.70;99212.00;293062;33;3918;-75
2022/11/25 00:47:20;;;;;;;;;;;;;;;9.39;65.73;99203.25;290326;33;4742;-75
2022/11/25 00:47:31;;;;;;;;;;;;;;;9.40;65.62;99210.16;287243;33;4398;-75
2022/11/25 00:47:41;;;;;;;;;;;;;;;9.41;65.47;99211.88;290456;34;1120;-75
2022/11/25 00:47:54;;;;;;;;;;;;;;;9.42;65.52;99208.34;285918;34;6248;-75
2022/11/25 00:48:04;;;;;;;;;;;;;;;9.42;65.68;99210.94;282229;34;7329;-75
2022/11/25 00:48:14;;;;;;;;;;;;;;;9.40;65.45;99202.34;280332;34;6964;-75
2022/11/25 00:48:24;;;;;;;;;;;;;;;9.40;65.33;99212.78;280523;35;1597;-76
2022/11/25 00:48:35;;;;;;;;;;;;;;;9.39;65.72;99205.84;279998;34;6745;-76
2022/11/25 00:48:46;;;;;;;;;;;;;;;9.38;65.61;99206.78;278362;35;6725;-75
2022/11/25 00:48:56;;;;;;;;;;;;;;;9.39;65.53;99210.22;277304;35;876;-75
2022/11/25 00:49:07;;;;;;;;;;;;;;;9.38;65.74;99206.78;275454;35;4698;-75
2022/11/25 00:49:17;;;;;;;;;;;;;;;9.39;65.66;99208.47;276937;35;5754;-76
2022/11/25 00:49:27;;;;;;;;;;;;;;;9.39;65.37;99207.63;278270;35;775;-76
2022/11/25 00:49:38;;;;;;;;;;;;;;;9.39;65.62;99205.84;276679;35;5896;-75
2022/11/25 00:49:52;;;;;;;;;;;;;;;9.39;65.69;99213.69;275889;35;6754;-75
2022/11/25 00:50:02;;;;;;;;;;;;;;;9.39;65.32;99207.63;273305;35;10450;-75
2022/11/25 00:50:12;;;;;;;;;;;;;;;9.38;65.27;99206.78;273158;36;1307;-75
2022/11/25 00:50:23;;;;;;;;;;;;;;;9.39;65.20;99203.25;274877;35;9741;-75
2022/11/25 00:50:33;;;;;;;;;;;;;;;9.39;65.56;99203.25;273942;35;9864;-75
2022/11/25 00:50:43;;;;;;;;;;;;;;;9.39;65.47;99202.41;275737;35;903;-75
2022/11/25 00:50:53;;;;;;;;;;;;;;;9.38;65.84;99203.31;271848;35;9062;-74
2022/11/25 00:52:50;;;;;;;;;;;;;;;9.37;65.46;99202.47;2504363;27;19933;-75
2022/11/25 00:53:01;;;;;;;;;;;;;;;9.37;65.64;99204.22;354892;27;823;-75
2022/11/25 00:53:11;;;;;;;;;;;;;;;9.37;65.60;99204.22;353559;28;612;-75
2022/11/25 00:53:21;;;;;;;;;;;;;;;9.37;65.38;99205.06;351861;28;1532;-75
2022/11/25 00:53:31;;;;;;;;;;;;;;;9.37;65.70;99199.00;350469;28;872;-75
2022/11/25 00:53:41;;;;;;;;;;;;;;;9.37;65.86;99199.84;350596;28;1251;-75
2022/11/25 00:53:52;;;;;;;;;;;;;;;9.37;65.73;99199.84;349272;28;930;-75
2022/11/25 00:54:03;;;;;;;;;;;;;;;9.38;65.56;99201.53;349203;28;1364;-75
2022/11/25 00:54:13;;;;;;;;;;;;;;;9.37;65.61;99199.84;347765;28;1465;-75
2022/11/25 00:54:23;;;;;;;;;;;;;;;9.38;65.34;99203.31;349303;28;1393;-75
2022/11/25 00:54:34;;;;;;;;;;;;;;;9.37;65.57;99202.47;351844;28;827;-75
2022/11/25 00:54:45;;;;;;;;;;;;;;;9.38;65.61;99201.53;351112;28;1370;-75
2022/11/25 00:54:55;;;;;;;;;;;;;;;9.38;65.45;99195.47;349302;28;1381;-76
2022/11/25 00:55:05;;;;;;;;;;;;;;;9.38;65.54;99201.53;350468;28;1430;-75
2022/11/25 00:55:15;;;;;;;;;;;;;;;9.39;65.61;99198.03;351854;28;1211;-75
2022/11/25 00:56:11;;;;;;;;;;;;;;;9.38;65.50;99191.09;348016;28;5084;-74
2022/11/25 00:56:12;;;;;;;;;;;;;;;9.37;65.21;99197.25;349361;28;1619;-75
2022/11/25 00:56:22;;;;;;;;;;;;;;;9.36;65.61;99200.75;346454;28;1339;-76
2022/11/25 00:56:32;;;;;;;;;;;;;;;9.36;65.24;99203.38;347757;28;1327;-76
2022/11/25 00:56:42;;;;;;;;;;;;;;;9.36;65.23;99200.75;348724;28;1094;-75
2022/11/25 00:56:53;;;;;;;;;;;;;;;9.35;65.29;99204.28;349133;28;1203;-75
2022/11/25 00:57:03;;;;;;;;;;;;;;;9.34;65.24;99198.22;350332;28;1295;-75
2022/11/25 00:57:13;;;;;;;;;;;;;;;9.35;65.40;99201.69;348075;28;1348;-75
2022/11/25 00:57:23;;;;;;;;;;;;;;;9.36;65.58;99195.53;347955;28;786;-75
2022/11/25 00:57:34;;;;;;;;;;;;;;;9.34;65.61;99200.81;347821;28;1194;-75
2022/11/25 00:57:44;;;;;;;;;;;;;;;9.35;65.07;99206.91;347934;28;883;-75
2022/11/25 00:57:54;;;;;;;;;;;;;;;9.35;65.25;99206.91;346378;28;1213;-76
2022/11/25 00:58:04;;;;;;;;;;;;;;;9.36;65.52;99205.13;347833;28;1795;-75
2022/11/25 00:58:15;;;;;;;;;;;;;;;9.38;65.62;99206.78;347674;28;1613;-75
2022/11/25 00:58:26;;;;;;;;;;;;;;;9.38;65.51;99201.53;348428;28;1313;-75
2022/11/25 00:58:36;;;;;;;;;;;;;;;9.38;65.47;99201.53;348280;28;1059;-75
2022/11/25 00:58:46;;;;;;;;;;;;;;;9.39;65.36;99205.00;349213;28;1192;-75
2022/11/25 00:58:56;;;;;;;;;;;;;;;9.38;65.47;99196.31;346495;28;1260;-75
2022/11/25 00:59:07;;;;;;;;;;;;;;;9.38;65.06;99201.53;346402;28;1340;-75
2022/11/25 00:59:17;;;;;;;;;;;;;;;9.39;65.40;99202.41;349042;28;1315;-75
2022/11/25 00:59:27;;;;;;;;;;;;;;;9.38;65.23;99201.53;348614;28;888;-75
2022/11/25 00:59:38;;;;;;;;;;;;;;;9.37;65.11;99201.63;352036;28;808;-75
2022/11/25 00:59:48;;;;;;;;;;;;;;;9.37;65.33;99202.47;352026;28;988;-75
2022/11/25 00:59:58;;;;;;;;;;;;;;;9.36;65.45;99202.53;350750;28;851;-75
2022/11/25 01:00:09;;;;;;;;;;;;;;;9.34;65.26;99198.22;344909;28;1352;-74
2022/11/25 01:00:19;;;;;;;;;;;;;;;9.34;65.04;99205.19;346492;28;1563;-74
2022/11/25 01:00:29;;;;;;;;;;;;;;;9.34;65.22;99202.59;343320;28;1260;-75
2022/11/25 01:00:39;;;;;;;;;;;;;;;9.33;65.37;99203.50;344935;28;1183;-74
2022/11/25 01:00:50;;;;;;;;;;;;;;;9.34;65.32;99205.19;343885;28;940;-75
2022/11/25 01:01:00;;;;;;;;;;;;;;;9.34;65.34;99206.06;346012;28;1267;-75
2022/11/25 01:01:11;;;;;;;;;;;;;;;9.33;65.31;99199.13;342224;28;1375;-75
2022/11/25 01:01:21;;;;;;;;;;;;;;;9.33;65.69;99198.28;343718;28;888;-75
2022/11/25 01:01:31;;;;;;;;;;;;;;;9.33;65.31;99199.13;341479;28;1177;-75
2022/11/25 01:01:41;;;;;;;;;;;;;;;9.33;65.43;99203.50;340274;28;1903;-75
2022/11/25 01:01:52;;;;;;;;;;;;;;;9.33;65.31;99208.72;343854;28;1265;-76
2022/11/25 01:02:02;;;;;;;;;;;;;;;9.34;65.26;99199.97;342173;28;1111;-75
2022/11/25 01:02:12;;;;;;;;;;;;;;;9.33;65.13;99200.91;342806;28;848;-75
2022/11/25 01:02:22;;;;;;;;;;;;;;;9.33;65.11;99199.13;345009;28;1179;-75
2022/11/25 01:02:33;;;;;;;;;;;;;;;9.35;65.38;99204.28;344623;28;1427;-75
2022/11/25 01:02:43;;;;;;;;;;;;;;;9.33;65.45;99204.34;343478;28;1400;-75
2022/11/25 01:02:53;;;;;;;;;;;;;;;9.32;65.04;99207.88;342552;28;783;-76
2022/11/25 01:03:03;;;;;;;;;;;;;;;9.33;64.97;99204.34;340794;29;1808;-76
2022/11/25 01:03:14;;;;;;;;;;;;;;;9.34;65.52;99203.44;337890;29;2069;-75
2022/11/25 01:03:27;;;;;;;;;;;;;;;9.35;65.01;99201.69;335172;29;1528;-75
2022/11/25 01:03:37;;;;;;;;;;;;;;;9.34;65.39;99208.66;329733;30;896;-75
2022/11/25 01:03:48;;;;;;;;;;;;;;;9.34;65.25;99199.97;333959;29;1543;-75
2022/11/25 01:03:58;;;;;;;;;;;;;;;9.35;65.01;99209.50;335003;29;1231;-75
2022/11/25 01:04:09;;;;;;;;;;;;;;;9.34;64.91;99206.06;335934;29;1283;-75
2022/11/25 01:04:19;;;;;;;;;;;;;;;9.34;65.22;99205.19;333276;29;1426;-75
2022/11/25 01:04:29;;;;;;;;;;;;;;;9.33;65.27;99206.97;333077;29;1268;-75
2022/11/25 01:04:39;;;;;;;;;;;;;;;9.34;65.21;99206.06;329169;29;5166;-75
2022/11/25 01:04:49;;;;;;;;;;;;;;;9.34;65.40;99213.03;327928;30;3595;-75
2022/11/25 01:05:00;;;;;;;;;;;;;;;9.35;65.08;99209.50;327695;29;2566;-75
2022/11/25 01:05:10;;;;;;;;;;;;;;;9.34;65.31;99207.81;327533;30;3536;-75
2022/11/25 01:05:20;;;;;;;;;;;;;;;9.33;65.22;99204.34;326837;30;1398;-75
2022/11/25 01:05:31;;;;;;;;;;;;;;;9.33;65.07;99206.97;323315;30;2185;-75
2022/11/25 01:05:41;;;;;;;;;;;;;;;9.33;64.75;99193.06;319502;30;2283;-76
2022/11/25 01:05:51;;;;;;;;;;;;;;;9.33;65.00;99208.72;320148;30;901;-75
2022/11/25 01:06:02;;;;;;;;;;;;;;;9.33;64.94;99206.13;322952;30;2157;-75
2022/11/25 01:06:12;;;;;;;;;;;;;;;9.31;64.90;99207.94;322026;30;1407;-75
2022/11/25 01:06:23;;;;;;;;;;;;;;;9.31;65.02;99211.41;322860;30;1366;-75
2022/11/25 01:06:33;;;;;;;;;;;;;;;9.31;65.09;99202.72;319773;30;1369;-75
2022/11/25 01:06:43;;;;;;;;;;;;;;;9.31;65.24;99210.56;317821;31;1844;-75
2022/11/25 01:06:57;;;;;;;;;;;;;;;9.31;65.07;99205.31;315104;31;1385;-75
2022/11/25 01:07:07;;;;;;;;;;;;;;;9.32;65.04;99201.81;315518;31;827;-75
2022/11/25 01:07:17;;;;;;;;;;;;;;;9.32;65.05;99212.25;314901;31;3330;-75
2022/11/25 01:07:27;;;;;;;;;;;;;;;9.31;65.07;99207.94;315237;31;3330;-75
2022/11/25 01:07:38;;;;;;;;;;;;;;;9.31;65.04;99207.94;315469;31;894;-75